Stril Barents — LDMA — position and weather

sailwx.info

Track history (hours):
 
Tides and Currents Weather Stations Pressure Air Temp Water Temp Dewpoint Dewpoint Depression Visibility Wind Speed Wind Dir Waves Ship Positions

Stril Barents

Last reported at 2018-Jul-19 14:58 UTC. Time now 2018-Jul-19 15:22 UTC.
Position N 70°38' E 023°40'.

Length 94 m; draft 6 m.

Type: Cargo ship. MMSI: 257472000.

Date/timePositionNaut miles runAvg speedWind from/ knotsBaromVisibWave heightAir tempDewpointWater temp
2018-Jul-19 14:58N 70°38' E 023°40'0 0.0
2018-Jul-19 14:28N 70°38' E 023°40'0 0.0
2018-Jul-19 13:28N 70°38' E 023°40'0 0.0
2018-Jul-19 12:58N 70°38' E 023°40'0 0.0
2018-Jul-19 12:28N 70°38' E 023°40'0 0.0
2018-Jul-19 11:58N 70°38' E 023°40'0 0.0
2018-Jul-19 11:28N 70°38' E 023°40'0 0.0
2018-Jul-19 10:58N 70°38' E 023°40'0 0.0
2018-Jul-19 10:28N 70°38' E 023°40'0 0.0
2018-Jul-19 09:58N 70°38' E 023°40'0 0.0
2018-Jul-19 09:28N 70°38' E 023°40'0 0.0
2018-Jul-19 08:58N 70°38' E 023°40'0 0.0
2018-Jul-19 08:28N 70°38' E 023°40'0 0.0
2018-Jul-19 07:58N 70°38' E 023°40'0 0.0
2018-Jul-19 07:28N 70°38' E 023°40'0 0.0
2018-Jul-19 06:58N 70°38' E 023°40'0 0.0
2018-Jul-19 06:28N 70°38' E 023°40'0 0.0
2018-Jul-19 05:58N 70°38' E 023°40'0 0.0
2018-Jul-19 05:28N 70°38' E 023°40'0 0.0
2018-Jul-19 04:58N 70°38' E 023°40'0 0.0
2018-Jul-19 04:28N 70°38' E 023°40'0 0.0
2018-Jul-19 03:58N 70°38' E 023°40'0 0.0
2018-Jul-19 03:28N 70°38' E 023°40'0 0.0
2018-Jul-19 02:58N 70°38' E 023°40'0 0.0
2018-Jul-19 02:28N 70°38' E 023°40'0 0.0
2018-Jul-19 01:58N 70°38' E 023°40'0 0.0
2018-Jul-19 01:28N 70°38' E 023°40'0 0.0
2018-Jul-19 00:58N 70°38' E 023°40'0 0.0
2018-Jul-19 00:28N 70°38' E 023°40'0 0.0
2018-Jul-18 23:58N 70°38' E 023°40'0 0.0
2018-Jul-18 23:28N 70°38' E 023°40'0 0.0
2018-Jul-18 22:58N 70°38' E 023°40'0 0.0
2018-Jul-18 22:28N 70°38' E 023°40'0 0.0
2018-Jul-18 21:58N 70°38' E 023°40'0 0.0
2018-Jul-18 21:28N 70°38' E 023°40'0 0.0
2018-Jul-18 20:58N 70°38' E 023°40'0 0.0
2018-Jul-18 20:28N 70°38' E 023°40'0 0.0
2018-Jul-18 19:58N 70°38' E 023°40'0 0.0
2018-Jul-18 19:28N 70°38' E 023°40'0 0.0
2018-Jul-18 18:58N 70°38' E 023°40'0 0.0
2018-Jul-18 18:28N 70°38' E 023°40'0 0.0
2018-Jul-18 17:58N 70°38' E 023°40'0 0.0
2018-Jul-18 17:28N 70°38' E 023°40'0 0.0
2018-Jul-18 16:58N 70°38' E 023°40'0 0.0
2018-Jul-18 16:28N 70°38' E 023°40'0 0.0
2018-Jul-18 15:58N 70°38' E 023°40'0 0.0
2018-Jul-18 15:28N 70°38' E 023°40'0 0.0
2018-Jul-18 14:58N 70°38' E 023°40'0 0.0
2018-Jul-18 14:28N 70°38' E 023°40'0 0.0
2018-Jul-18 13:28N 70°38' E 023°40'0 0.0
2018-Jul-18 12:58N 70°38' E 023°40'0 0.0
2018-Jul-18 12:28N 70°38' E 023°40'0 0.0
2018-Jul-18 11:58N 70°38' E 023°40'0 0.0
2018-Jul-18 11:28N 70°38' E 023°40'0 0.0
2018-Jul-18 10:28N 70°38' E 023°40'0 0.0
2018-Jul-18 09:58N 70°38' E 023°40'0 0.0
2018-Jul-18 09:28N 70°38' E 023°40'0 0.0
2018-Jul-18 08:58N 70°38' E 023°40'0 0.0
2018-Jul-18 08:28N 70°38' E 023°40'0 0.0
2018-Jul-18 07:59N 70°38' E 023°40'0 0.0
2018-Jul-18 07:30N 70°38' E 023°40'0 0.0
2018-Jul-18 07:00N 70°38' E 023°40'0 0.0
2018-Jul-18 06:30N 70°38' E 023°40'0 0.0
2018-Jul-18 06:00N 70°38' E 023°40'2 5.0
2018-Jul-18 05:29N 70°40' E 023°34'3 6.0
2018-Jul-18 05:00N 70°43' E 023°33'3 6.2
2018-Jul-18 04:29N 70°46' E 023°32'3 6.2
2018-Jul-18 04:00N 70°49' E 023°31'3 6.3
2018-Jul-18 03:30N 70°51' E 023°25'3 6.0
2018-Jul-18 03:00N 70°54' E 023°19'2 4.8
2018-Jul-18 02:29N 70°55' E 023°14'2 4.8
2018-Jul-18 02:00N 70°57' E 023°09'2 4.9
2018-Jul-18 01:30N 70°59' E 023°05'3 5.0
2018-Jul-18 00:59N 71°01' E 023°00'2 5.1
2018-Jul-18 00:30N 71°03' E 022°55'3 5.3
2018-Jul-18 00:00N 71°05' E 022°50'3 5.2
2018-Jul-17 23:30N 71°07' E 022°45'3 5.1
2018-Jul-17 23:00N 71°09' E 022°40'  
2018-Jul-14 04:11N 71°11' E 022°38'2 9.1
2018-Jul-14 03:59N 71°09' E 022°42'4 8.8
2018-Jul-14 03:29N 71°06' E 022°50'4 8.5
2018-Jul-14 02:59N 71°02' E 022°58'4 9.1
2018-Jul-14 02:30N 70°59' E 023°07'5 9.3
2018-Jul-14 02:00N 70°55' E 023°16'5 9.3
2018-Jul-14 01:30N 70°52' E 023°25'510.0
2018-Jul-14 01:00N 70°47' E 023°32'611.0
2018-Jul-14 00:30N 70°42' E 023°33'4 8.4
2018-Jul-14 00:00N 70°38' E 023°39'0 0.6
2018-Jul-13 23:30N 70°38' E 023°40'0 0.0
2018-Jul-13 23:00N 70°38' E 023°40'0 0.0
2018-Jul-13 22:30N 70°38' E 023°40'0 0.0
2018-Jul-13 22:00N 70°38' E 023°40'0 0.0
2018-Jul-13 21:30N 70°38' E 023°40'0 0.0
2018-Jul-13 21:00N 70°38' E 023°40'0 0.0
2018-Jul-13 20:30N 70°38' E 023°40'0 0.0
2018-Jul-13 20:00N 70°38' E 023°40'0 0.0
2018-Jul-13 19:30N 70°38' E 023°40'0 0.0
2018-Jul-13 19:00N 70°38' E 023°40'0 0.0
2018-Jul-13 18:30N 70°38' E 023°40'0 0.0
2018-Jul-13 18:00N 70°38' E 023°40'0 0.0
2018-Jul-13 17:30N 70°38' E 023°40'0 0.0
2018-Jul-13 17:00N 70°38' E 023°40'0 0.0
2018-Jul-13 16:30N 70°38' E 023°40'0 0.0
2018-Jul-13 16:00N 70°38' E 023°40'0 0.0
2018-Jul-13 15:30N 70°38' E 023°40'0 0.0
2018-Jul-13 15:00N 70°38' E 023°40'0 0.0
2018-Jul-13 14:30N 70°38' E 023°40'0 0.0
2018-Jul-13 13:30N 70°38' E 023°40'0 0.0
2018-Jul-13 13:00N 70°38' E 023°40'0 0.0
2018-Jul-13 12:30N 70°38' E 023°40'0 0.0
2018-Jul-13 12:00N 70°38' E 023°40'0 0.0
2018-Jul-13 11:30N 70°38' E 023°40'0 0.0
2018-Jul-13 11:00N 70°38' E 023°40'0 0.0
2018-Jul-13 10:30N 70°38' E 023°40'0 0.0
2018-Jul-13 10:00N 70°38' E 023°40'0 0.0
2018-Jul-13 09:30N 70°38' E 023°40'0 0.0
2018-Jul-13 09:00N 70°38' E 023°40'0 0.0
2018-Jul-13 08:30N 70°38' E 023°40'0 0.0
2018-Jul-13 08:00N 70°38' E 023°40'0 0.0
2018-Jul-13 07:30N 70°38' E 023°40'0 0.0
2018-Jul-13 07:00N 70°38' E 023°40'0 0.0
2018-Jul-13 06:30N 70°38' E 023°40'0 0.1
2018-Jul-13 06:00N 70°38' E 023°40'0 0.0
2018-Jul-13 05:30N 70°38' E 023°40'0 0.0
2018-Jul-13 05:00N 70°38' E 023°40'0 0.0
2018-Jul-13 04:30N 70°38' E 023°40'0 0.0
2018-Jul-13 04:00N 70°38' E 023°40'0 0.0
2018-Jul-13 03:30N 70°38' E 023°40'0 0.0
2018-Jul-13 03:00N 70°38' E 023°40'0 0.0
2018-Jul-13 02:30N 70°38' E 023°40'0 0.0
2018-Jul-13 02:00N 70°38' E 023°40'0 0.0
2018-Jul-13 01:30N 70°38' E 023°40'0 0.0
2018-Jul-13 01:00N 70°38' E 023°40'0 0.0
2018-Jul-13 00:30N 70°38' E 023°40'0 0.0
2018-Jul-13 00:00N 70°38' E 023°40'0 0.0
2018-Jul-12 23:30N 70°38' E 023°40'0 0.0
2018-Jul-12 23:00N 70°38' E 023°40'0 0.0
2018-Jul-12 22:30N 70°38' E 023°40'0 0.0
2018-Jul-12 22:00N 70°38' E 023°40'0 0.0
2018-Jul-12 21:30N 70°38' E 023°40'0 0.0
2018-Jul-12 21:00N 70°38' E 023°40'0 0.0
2018-Jul-12 20:30N 70°38' E 023°40'0 0.0
2018-Jul-12 20:00N 70°38' E 023°40'0 0.0
2018-Jul-12 19:30N 70°38' E 023°40'0 0.0
2018-Jul-12 19:00N 70°38' E 023°40'0 0.0
2018-Jul-12 18:30N 70°38' E 023°40'0 0.0
2018-Jul-12 18:00N 70°38' E 023°40'0 0.0
2018-Jul-12 17:30N 70°38' E 023°40'0 0.0
2018-Jul-12 17:00N 70°38' E 023°40'0 0.0
2018-Jul-12 16:30N 70°38' E 023°40'0 0.0
2018-Jul-12 16:00N 70°38' E 023°40'0 0.0
2018-Jul-12 15:30N 70°38' E 023°40'0 0.0
2018-Jul-12 15:00N 70°38' E 023°40'0 0.0
2018-Jul-12 14:30N 70°38' E 023°40'0 0.0
2018-Jul-12 14:00N 70°38' E 023°40'0 0.0
2018-Jul-12 13:30N 70°38' E 023°40'0 0.0
2018-Jul-12 13:00N 70°38' E 023°40'0 0.0
2018-Jul-12 12:30N 70°38' E 023°40'0 0.0
2018-Jul-12 12:00N 70°38' E 023°40'0 0.0
2018-Jul-12 11:27N 70°38' E 023°40'0 0.0
2018-Jul-12 11:00N 70°38' E 023°40'0 0.0
2018-Jul-12 10:30N 70°38' E 023°40'0 0.0
2018-Jul-12 10:00N 70°38' E 023°40'0 0.0
2018-Jul-12 09:30N 70°38' E 023°40'0 0.0
2018-Jul-12 09:00N 70°38' E 023°40'0 0.0
2018-Jul-12 08:30N 70°38' E 023°40'0 0.0
2018-Jul-12 08:00N 70°38' E 023°40'0 0.0
2018-Jul-12 07:30N 70°38' E 023°40'0 0.0
2018-Jul-12 07:00N 70°38' E 023°40'0 0.0
2018-Jul-12 06:30N 70°38' E 023°40'0 0.0
2018-Jul-12 06:00N 70°38' E 023°40'0 0.0
2018-Jul-12 05:30N 70°38' E 023°40'0 0.0
2018-Jul-12 05:00N 70°38' E 023°40'0 0.0
2018-Jul-12 04:30N 70°38' E 023°40'0 0.0
2018-Jul-12 04:00N 70°38' E 023°40'0 0.0
2018-Jul-12 03:30N 70°38' E 023°40'0 0.0
2018-Jul-12 03:00N 70°38' E 023°40'0 0.0
2018-Jul-12 02:30N 70°38' E 023°40'0 0.0
2018-Jul-12 02:00N 70°38' E 023°40'0 0.0
2018-Jul-12 01:30N 70°38' E 023°40'0 0.0
2018-Jul-12 00:57N 70°38' E 023°40'0 0.0
2018-Jul-12 00:30N 70°38' E 023°40'0 0.0
2018-Jul-12 00:00N 70°38' E 023°40'0 0.0
2018-Jul-11 23:30N 70°38' E 023°40'0 0.0
2018-Jul-11 23:00N 70°38' E 023°40'1 1.8
2018-Jul-11 22:30N 70°38' E 023°37'5 9.2
2018-Jul-11 22:00N 70°43' E 023°33'611.4
2018-Jul-11 21:29N 70°48' E 023°31'611.5
2018-Jul-11 21:00N 70°53' E 023°21'611.5
2018-Jul-11 20:30N 70°57' E 023°10'611.8
2018-Jul-11 20:00N 71°02' E 022°58'612.0
2018-Jul-11 19:29N 71°06' E 022°44'5 0.3
2018-Jul-11 02:40N 71°10' E 022°39'211.1
2018-Jul-11 02:30N 71°09' E 022°43'4 8.2
2018-Jul-11 02:00N 71°06' E 022°51'4 8.0
2018-Jul-11 01:30N 71°03' E 022°58'4 8.1
2018-Jul-11 01:00N 70°59' E 023°05'4 8.2
2018-Jul-11 00:30N 70°56' E 023°13'4 8.1
2018-Jul-10 23:59N 70°53' E 023°21'4 9.2
2018-Jul-10 23:30N 70°50' E 023°30'510.4
2018-Jul-10 23:00N 70°44' E 023°33'510.8
2018-Jul-10 22:30N 70°39' E 023°34'2 4.0
2018-Jul-10 22:00N 70°38' E 023°39'0 0.0
2018-Jul-10 21:28N 70°38' E 023°39'0 0.0
2018-Jul-10 20:58N 70°38' E 023°39'0 0.0
2018-Jul-10 20:28N 70°38' E 023°39'0 0.0
2018-Jul-10 19:58N 70°38' E 023°39'0 0.0
2018-Jul-10 19:28N 70°38' E 023°39'0 0.0
2018-Jul-10 18:55N 70°38' E 023°39'0 0.0
2018-Jul-10 18:28N 70°38' E 023°39'0 0.0
2018-Jul-10 17:58N 70°38' E 023°39'0 0.0
2018-Jul-10 17:28N 70°38' E 023°39'0 0.0
2018-Jul-10 16:58N 70°38' E 023°39'0 0.0
2018-Jul-10 16:28N 70°38' E 023°39'0 0.0
2018-Jul-10 15:58N 70°38' E 023°39'0 0.0
2018-Jul-10 15:28N 70°38' E 023°39'0 0.0
2018-Jul-10 14:58N 70°38' E 023°39'0 0.0
2018-Jul-10 14:28N 70°38' E 023°39'0 0.0
2018-Jul-10 13:58N 70°38' E 023°39'0 0.0
2018-Jul-10 13:28N 70°38' E 023°39'0 0.0
2018-Jul-10 12:58N 70°38' E 023°39'0 0.0
2018-Jul-10 12:28N 70°38' E 023°39'0 0.0
2018-Jul-10 11:58N 70°38' E 023°39'0 0.0
2018-Jul-10 11:28N 70°38' E 023°39'0 0.0
2018-Jul-10 10:58N 70°38' E 023°39'0 0.0
2018-Jul-10 10:28N 70°38' E 023°39'0 0.0
2018-Jul-10 09:58N 70°38' E 023°39'0 0.0
2018-Jul-10 09:28N 70°38' E 023°39'0 0.0
2018-Jul-10 08:58N 70°38' E 023°39'0 0.0
2018-Jul-10 08:28N 70°38' E 023°39'0 0.0
2018-Jul-10 07:58N 70°38' E 023°39'0 0.0
2018-Jul-10 07:28N 70°38' E 023°39'0 0.0
2018-Jul-10 06:58N 70°38' E 023°39'0 0.0
2018-Jul-10 06:28N 70°38' E 023°39'0 0.0
2018-Jul-10 05:58N 70°38' E 023°39'0 0.0
2018-Jul-10 05:28N 70°38' E 023°39'0 0.0
2018-Jul-10 04:58N 70°38' E 023°39'0 0.0
2018-Jul-10 04:28N 70°38' E 023°39'0 0.0
2018-Jul-10 03:58N 70°38' E 023°39'0 0.0
2018-Jul-10 03:28N 70°38' E 023°39'0 0.0
2018-Jul-10 02:58N 70°38' E 023°39'0 0.0
2018-Jul-10 02:28N 70°38' E 023°39'0 0.0
2018-Jul-10 01:58N 70°38' E 023°39'0 0.0
2018-Jul-10 01:28N 70°38' E 023°39'0 0.0
2018-Jul-10 00:58N 70°38' E 023°39'0 0.0
2018-Jul-10 00:28N 70°38' E 023°39'0 0.0
2018-Jul-09 23:58N 70°38' E 023°39'0 0.0
2018-Jul-09 23:28N 70°38' E 023°39'0 0.0
2018-Jul-09 22:58N 70°38' E 023°39'0 0.0
2018-Jul-09 22:28N 70°38' E 023°39'0 0.0
2018-Jul-09 21:58N 70°38' E 023°39'0 0.0
2018-Jul-09 21:28N 70°38' E 023°39'0 0.0
2018-Jul-09 20:58N 70°38' E 023°39'0 0.0
2018-Jul-09 20:28N 70°38' E 023°39'0 0.0
2018-Jul-09 19:58N 70°38' E 023°39'0 0.0
2018-Jul-09 19:28N 70°38' E 023°39'0 0.0
2018-Jul-09 19:00N 70°38' E 023°39'0 0.0
2018-Jul-09 18:30N 70°38' E 023°39'0 0.0
2018-Jul-09 18:00N 70°38' E 023°39'0 0.0
2018-Jul-09 17:30N 70°38' E 023°39'0 0.0
2018-Jul-09 17:00N 70°38' E 023°39'0 0.0
2018-Jul-09 16:30N 70°38' E 023°39'0 0.0
2018-Jul-09 16:00N 70°38' E 023°39'0 0.0
2018-Jul-09 15:29N 70°38' E 023°39'0 0.0
2018-Jul-09 14:59N 70°38' E 023°39'  
Track history (hours):
 
Tides and Currents Weather Stations Pressure Air Temp Water Temp Dewpoint Dewpoint Depression Visibility Wind Speed Wind Dir Waves Ship Positions

Stril Barents

Last reported at 2018-Jul-19 14:58 UTC. Time now 2018-Jul-19 15:22 UTC.
Position N 70°38' E 023°40'.

Length 94 m; draft 6 m.

Type: Cargo ship. MMSI: 257472000.

Date/timePositionNaut miles runAvg speedWind from/ knotsBaromVisibWave heightAir tempDewpointWater temp
2018-Jul-19 14:58N 70°38' E 023°40'0 0.0
2018-Jul-19 14:28N 70°38' E 023°40'0 0.0
2018-Jul-19 13:28N 70°38' E 023°40'0 0.0
2018-Jul-19 12:58N 70°38' E 023°40'0 0.0
2018-Jul-19 12:28N 70°38' E 023°40'0 0.0
2018-Jul-19 11:58N 70°38' E 023°40'0 0.0
2018-Jul-19 11:28N 70°38' E 023°40'0 0.0
2018-Jul-19 10:58N 70°38' E 023°40'0 0.0
2018-Jul-19 10:28N 70°38' E 023°40'0 0.0
2018-Jul-19 09:58N 70°38' E 023°40'0 0.0
2018-Jul-19 09:28N 70°38' E 023°40'0 0.0
2018-Jul-19 08:58N 70°38' E 023°40'0 0.0
2018-Jul-19 08:28N 70°38' E 023°40'0 0.0
2018-Jul-19 07:58N 70°38' E 023°40'0 0.0
2018-Jul-19 07:28N 70°38' E 023°40'0 0.0
2018-Jul-19 06:58N 70°38' E 023°40'0 0.0
2018-Jul-19 06:28N 70°38' E 023°40'0 0.0
2018-Jul-19 05:58N 70°38' E 023°40'0 0.0
2018-Jul-19 05:28N 70°38' E 023°40'0 0.0
2018-Jul-19 04:58N 70°38' E 023°40'0 0.0
2018-Jul-19 04:28N 70°38' E 023°40'0 0.0
2018-Jul-19 03:58N 70°38' E 023°40'0 0.0
2018-Jul-19 03:28N 70°38' E 023°40'0 0.0
2018-Jul-19 02:58N 70°38' E 023°40'0 0.0
2018-Jul-19 02:28N 70°38' E 023°40'0 0.0
2018-Jul-19 01:58N 70°38' E 023°40'0 0.0
2018-Jul-19 01:28N 70°38' E 023°40'0 0.0
2018-Jul-19 00:58N 70°38' E 023°40'0 0.0
2018-Jul-19 00:28N 70°38' E 023°40'0 0.0
2018-Jul-18 23:58N 70°38' E 023°40'0 0.0
2018-Jul-18 23:28N 70°38' E 023°40'0 0.0
2018-Jul-18 22:58N 70°38' E 023°40'0 0.0
2018-Jul-18 22:28N 70°38' E 023°40'0 0.0
2018-Jul-18 21:58N 70°38' E 023°40'0 0.0
2018-Jul-18 21:28N 70°38' E 023°40'0 0.0
2018-Jul-18 20:58N 70°38' E 023°40'0 0.0
2018-Jul-18 20:28N 70°38' E 023°40'0 0.0
2018-Jul-18 19:58N 70°38' E 023°40'0 0.0
2018-Jul-18 19:28N 70°38' E 023°40'0 0.0
2018-Jul-18 18:58N 70°38' E 023°40'0 0.0
2018-Jul-18 18:28N 70°38' E 023°40'0 0.0
2018-Jul-18 17:58N 70°38' E 023°40'0 0.0
2018-Jul-18 17:28N 70°38' E 023°40'0 0.0
2018-Jul-18 16:58N 70°38' E 023°40'0 0.0
2018-Jul-18 16:28N 70°38' E 023°40'0 0.0
2018-Jul-18 15:58N 70°38' E 023°40'0 0.0
2018-Jul-18 15:28N 70°38' E 023°40'0 0.0
2018-Jul-18 14:58N 70°38' E 023°40'0 0.0
2018-Jul-18 14:28N 70°38' E 023°40'0 0.0
2018-Jul-18 13:28N 70°38' E 023°40'0 0.0
2018-Jul-18 12:58N 70°38' E 023°40'0 0.0
2018-Jul-18 12:28N 70°38' E 023°40'0 0.0
2018-Jul-18 11:58N 70°38' E 023°40'0 0.0
2018-Jul-18 11:28N 70°38' E 023°40'0 0.0
2018-Jul-18 10:28N 70°38' E 023°40'0 0.0
2018-Jul-18 09:58N 70°38' E 023°40'0 0.0
2018-Jul-18 09:28N 70°38' E 023°40'0 0.0
2018-Jul-18 08:58N 70°38' E 023°40'0 0.0
2018-Jul-18 08:28N 70°38' E 023°40'0 0.0
2018-Jul-18 07:59N 70°38' E 023°40'0 0.0
2018-Jul-18 07:30N 70°38' E 023°40'0 0.0
2018-Jul-18 07:00N 70°38' E 023°40'0 0.0
2018-Jul-18 06:30N 70°38' E 023°40'0 0.0
2018-Jul-18 06:00N 70°38' E 023°40'2 5.0
2018-Jul-18 05:29N 70°40' E 023°34'3 6.0
2018-Jul-18 05:00N 70°43' E 023°33'3 6.2
2018-Jul-18 04:29N 70°46' E 023°32'3 6.2
2018-Jul-18 04:00N 70°49' E 023°31'3 6.3
2018-Jul-18 03:30N 70°51' E 023°25'3 6.0
2018-Jul-18 03:00N 70°54' E 023°19'2 4.8
2018-Jul-18 02:29N 70°55' E 023°14'2 4.8
2018-Jul-18 02:00N 70°57' E 023°09'2 4.9
2018-Jul-18 01:30N 70°59' E 023°05'3 5.0
2018-Jul-18 00:59N 71°01' E 023°00'2 5.1
2018-Jul-18 00:30N 71°03' E 022°55'3 5.3
2018-Jul-18 00:00N 71°05' E 022°50'3 5.2
2018-Jul-17 23:30N 71°07' E 022°45'3 5.1
2018-Jul-17 23:00N 71°09' E 022°40'  
2018-Jul-14 04:11N 71°11' E 022°38'2 9.1
2018-Jul-14 03:59N 71°09' E 022°42'4 8.8
2018-Jul-14 03:29N 71°06' E 022°50'4 8.5
2018-Jul-14 02:59N 71°02' E 022°58'4 9.1
2018-Jul-14 02:30N 70°59' E 023°07'5 9.3
2018-Jul-14 02:00N 70°55' E 023°16'5 9.3
2018-Jul-14 01:30N 70°52' E 023°25'510.0
2018-Jul-14 01:00N 70°47' E 023°32'611.0
2018-Jul-14 00:30N 70°42' E 023°33'4 8.4
2018-Jul-14 00:00N 70°38' E 023°39'0 0.6
2018-Jul-13 23:30N 70°38' E 023°40'0 0.0
2018-Jul-13 23:00N 70°38' E 023°40'0 0.0
2018-Jul-13 22:30N 70°38' E 023°40'0 0.0
2018-Jul-13 22:00N 70°38' E 023°40'0 0.0
2018-Jul-13 21:30N 70°38' E 023°40'0 0.0
2018-Jul-13 21:00N 70°38' E 023°40'0 0.0
2018-Jul-13 20:30N 70°38' E 023°40'0 0.0
2018-Jul-13 20:00N 70°38' E 023°40'0 0.0
2018-Jul-13 19:30N 70°38' E 023°40'0 0.0
2018-Jul-13 19:00N 70°38' E 023°40'0 0.0
2018-Jul-13 18:30N 70°38' E 023°40'0 0.0
2018-Jul-13 18:00N 70°38' E 023°40'0 0.0
2018-Jul-13 17:30N 70°38' E 023°40'0 0.0
2018-Jul-13 17:00N 70°38' E 023°40'0 0.0
2018-Jul-13 16:30N 70°38' E 023°40'0 0.0
2018-Jul-13 16:00N 70°38' E 023°40'0 0.0
2018-Jul-13 15:30N 70°38' E 023°40'0 0.0
2018-Jul-13 15:00N 70°38' E 023°40'0 0.0
2018-Jul-13 14:30N 70°38' E 023°40'0 0.0
2018-Jul-13 13:30N 70°38' E 023°40'0 0.0
2018-Jul-13 13:00N 70°38' E 023°40'0 0.0
2018-Jul-13 12:30N 70°38' E 023°40'0 0.0
2018-Jul-13 12:00N 70°38' E 023°40'0 0.0
2018-Jul-13 11:30N 70°38' E 023°40'0 0.0
2018-Jul-13 11:00N 70°38' E 023°40'0 0.0
2018-Jul-13 10:30N 70°38' E 023°40'0 0.0
2018-Jul-13 10:00N 70°38' E 023°40'0 0.0
2018-Jul-13 09:30N 70°38' E 023°40'0 0.0
2018-Jul-13 09:00N 70°38' E 023°40'0 0.0
2018-Jul-13 08:30N 70°38' E 023°40'0 0.0
2018-Jul-13 08:00N 70°38' E 023°40'0 0.0
2018-Jul-13 07:30N 70°38' E 023°40'0 0.0
2018-Jul-13 07:00N 70°38' E 023°40'0 0.0
2018-Jul-13 06:30N 70°38' E 023°40'0 0.1
2018-Jul-13 06:00N 70°38' E 023°40'0 0.0
2018-Jul-13 05:30N 70°38' E 023°40'0 0.0
2018-Jul-13 05:00N 70°38' E 023°40'0 0.0
2018-Jul-13 04:30N 70°38' E 023°40'0 0.0
2018-Jul-13 04:00N 70°38' E 023°40'0 0.0
2018-Jul-13 03:30N 70°38' E 023°40'0 0.0
2018-Jul-13 03:00N 70°38' E 023°40'0 0.0
2018-Jul-13 02:30N 70°38' E 023°40'0 0.0
2018-Jul-13 02:00N 70°38' E 023°40'0 0.0
2018-Jul-13 01:30N 70°38' E 023°40'0 0.0
2018-Jul-13 01:00N 70°38' E 023°40'0 0.0
2018-Jul-13 00:30N 70°38' E 023°40'0 0.0
2018-Jul-13 00:00N 70°38' E 023°40'0 0.0
2018-Jul-12 23:30N 70°38' E 023°40'0 0.0
2018-Jul-12 23:00N 70°38' E 023°40'0 0.0
2018-Jul-12 22:30N 70°38' E 023°40'0 0.0
2018-Jul-12 22:00N 70°38' E 023°40'0 0.0
2018-Jul-12 21:30N 70°38' E 023°40'0 0.0
2018-Jul-12 21:00N 70°38' E 023°40'0 0.0
2018-Jul-12 20:30N 70°38' E 023°40'0 0.0
2018-Jul-12 20:00N 70°38' E 023°40'0 0.0
2018-Jul-12 19:30N 70°38' E 023°40'0 0.0
2018-Jul-12 19:00N 70°38' E 023°40'0 0.0
2018-Jul-12 18:30N 70°38' E 023°40'0 0.0
2018-Jul-12 18:00N 70°38' E 023°40'0 0.0
2018-Jul-12 17:30N 70°38' E 023°40'0 0.0
2018-Jul-12 17:00N 70°38' E 023°40'0 0.0
2018-Jul-12 16:30N 70°38' E 023°40'0 0.0
2018-Jul-12 16:00N 70°38' E 023°40'0 0.0
2018-Jul-12 15:30N 70°38' E 023°40'0 0.0
2018-Jul-12 15:00N 70°38' E 023°40'0 0.0
2018-Jul-12 14:30N 70°38' E 023°40'0 0.0
2018-Jul-12 14:00N 70°38' E 023°40'0 0.0
2018-Jul-12 13:30N 70°38' E 023°40'0 0.0
2018-Jul-12 13:00N 70°38' E 023°40'0 0.0
2018-Jul-12 12:30N 70°38' E 023°40'0 0.0
2018-Jul-12 12:00N 70°38' E 023°40'0 0.0
2018-Jul-12 11:27N 70°38' E 023°40'0 0.0
2018-Jul-12 11:00N 70°38' E 023°40'0 0.0
2018-Jul-12 10:30N 70°38' E 023°40'0 0.0
2018-Jul-12 10:00N 70°38' E 023°40'0 0.0
2018-Jul-12 09:30N 70°38' E 023°40'0 0.0
2018-Jul-12 09:00N 70°38' E 023°40'0 0.0
2018-Jul-12 08:30N 70°38' E 023°40'0 0.0
2018-Jul-12 08:00N 70°38' E 023°40'0 0.0
2018-Jul-12 07:30N 70°38' E 023°40'0 0.0
2018-Jul-12 07:00N 70°38' E 023°40'0 0.0
2018-Jul-12 06:30N 70°38' E 023°40'0 0.0
2018-Jul-12 06:00N 70°38' E 023°40'0 0.0
2018-Jul-12 05:30N 70°38' E 023°40'0 0.0
2018-Jul-12 05:00N 70°38' E 023°40'0 0.0
2018-Jul-12 04:30N 70°38' E 023°40'0 0.0
2018-Jul-12 04:00N 70°38' E 023°40'0 0.0
2018-Jul-12 03:30N 70°38' E 023°40'0 0.0
2018-Jul-12 03:00N 70°38' E 023°40'0 0.0
2018-Jul-12 02:30N 70°38' E 023°40'0 0.0
2018-Jul-12 02:00N 70°38' E 023°40'0 0.0
2018-Jul-12 01:30N 70°38' E 023°40'0 0.0
2018-Jul-12 00:57N 70°38' E 023°40'0 0.0
2018-Jul-12 00:30N 70°38' E 023°40'0 0.0
2018-Jul-12 00:00N 70°38' E 023°40'0 0.0
2018-Jul-11 23:30N 70°38' E 023°40'0 0.0
2018-Jul-11 23:00N 70°38' E 023°40'1 1.8
2018-Jul-11 22:30N 70°38' E 023°37'5 9.2
2018-Jul-11 22:00N 70°43' E 023°33'611.4
2018-Jul-11 21:29N 70°48' E 023°31'611.5
2018-Jul-11 21:00N 70°53' E 023°21'611.5
2018-Jul-11 20:30N 70°57' E 023°10'611.8
2018-Jul-11 20:00N 71°02' E 022°58'612.0
2018-Jul-11 19:29N 71°06' E 022°44'5 0.3
2018-Jul-11 02:40N 71°10' E 022°39'211.1
2018-Jul-11 02:30N 71°09' E 022°43'4 8.2
2018-Jul-11 02:00N 71°06' E 022°51'4 8.0
2018-Jul-11 01:30N 71°03' E 022°58'4 8.1
2018-Jul-11 01:00N 70°59' E 023°05'4 8.2
2018-Jul-11 00:30N 70°56' E 023°13'4 8.1
2018-Jul-10 23:59N 70°53' E 023°21'4 9.2
2018-Jul-10 23:30N 70°50' E 023°30'510.4
2018-Jul-10 23:00N 70°44' E 023°33'510.8
2018-Jul-10 22:30N 70°39' E 023°34'2 4.0
2018-Jul-10 22:00N 70°38' E 023°39'0 0.0
2018-Jul-10 21:28N 70°38' E 023°39'0 0.0
2018-Jul-10 20:58N 70°38' E 023°39'0 0.0
2018-Jul-10 20:28N 70°38' E 023°39'0 0.0
2018-Jul-10 19:58N 70°38' E 023°39'0 0.0
2018-Jul-10 19:28N 70°38' E 023°39'0 0.0
2018-Jul-10 18:55N 70°38' E 023°39'0 0.0
2018-Jul-10 18:28N 70°38' E 023°39'0 0.0
2018-Jul-10 17:58N 70°38' E 023°39'0 0.0
2018-Jul-10 17:28N 70°38' E 023°39'0 0.0
2018-Jul-10 16:58N 70°38' E 023°39'0 0.0
2018-Jul-10 16:28N 70°38' E 023°39'0 0.0
2018-Jul-10 15:58N 70°38' E 023°39'0 0.0
2018-Jul-10 15:28N 70°38' E 023°39'0 0.0
2018-Jul-10 14:58N 70°38' E 023°39'0 0.0
2018-Jul-10 14:28N 70°38' E 023°39'0 0.0
2018-Jul-10 13:58N 70°38' E 023°39'0 0.0
2018-Jul-10 13:28N 70°38' E 023°39'0 0.0
2018-Jul-10 12:58N 70°38' E 023°39'0 0.0
2018-Jul-10 12:28N 70°38' E 023°39'0 0.0
2018-Jul-10 11:58N 70°38' E 023°39'0 0.0
2018-Jul-10 11:28N 70°38' E 023°39'0 0.0
2018-Jul-10 10:58N 70°38' E 023°39'0 0.0
2018-Jul-10 10:28N 70°38' E 023°39'0 0.0
2018-Jul-10 09:58N 70°38' E 023°39'0 0.0
2018-Jul-10 09:28N 70°38' E 023°39'0 0.0
2018-Jul-10 08:58N 70°38' E 023°39'0 0.0
2018-Jul-10 08:28N 70°38' E 023°39'0 0.0
2018-Jul-10 07:58N 70°38' E 023°39'0 0.0
2018-Jul-10 07:28N 70°38' E 023°39'0 0.0
2018-Jul-10 06:58N 70°38' E 023°39'0 0.0
2018-Jul-10 06:28N 70°38' E 023°39'0 0.0
2018-Jul-10 05:58N 70°38' E 023°39'0 0.0
2018-Jul-10 05:28N 70°38' E 023°39'0 0.0
2018-Jul-10 04:58N 70°38' E 023°39'0 0.0
2018-Jul-10 04:28N 70°38' E 023°39'0 0.0
2018-Jul-10 03:58N 70°38' E 023°39'0 0.0
2018-Jul-10 03:28N 70°38' E 023°39'0 0.0
2018-Jul-10 02:58N 70°38' E 023°39'0 0.0
2018-Jul-10 02:28N 70°38' E 023°39'0 0.0
2018-Jul-10 01:58N 70°38' E 023°39'0 0.0
2018-Jul-10 01:28N 70°38' E 023°39'0 0.0
2018-Jul-10 00:58N 70°38' E 023°39'0 0.0
2018-Jul-10 00:28N 70°38' E 023°39'0 0.0
2018-Jul-09 23:58N 70°38' E 023°39'0 0.0
2018-Jul-09 23:28N 70°38' E 023°39'0 0.0
2018-Jul-09 22:58N 70°38' E 023°39'0 0.0
2018-Jul-09 22:28N 70°38' E 023°39'0 0.0
2018-Jul-09 21:58N 70°38' E 023°39'0 0.0
2018-Jul-09 21:28N 70°38' E 023°39'0 0.0
2018-Jul-09 20:58N 70°38' E 023°39'0 0.0
2018-Jul-09 20:28N 70°38' E 023°39'0 0.0
2018-Jul-09 19:58N 70°38' E 023°39'0 0.0
2018-Jul-09 19:28N 70°38' E 023°39'0 0.0
2018-Jul-09 19:00N 70°38' E 023°39'0 0.0
2018-Jul-09 18:30N 70°38' E 023°39'0 0.0
2018-Jul-09 18:00N 70°38' E 023°39'0 0.0
2018-Jul-09 17:30N 70°38' E 023°39'0 0.0
2018-Jul-09 17:00N 70°38' E 023°39'0 0.0
2018-Jul-09 16:30N 70°38' E 023°39'0 0.0
2018-Jul-09 16:00N 70°38' E 023°39'0 0.0
2018-Jul-09 15:29N 70°38' E 023°39'0 0.0
2018-Jul-09 14:59N 70°38' E 023°39'  

Dump ship's entire track history